sensor_id;sensor_type;location;lat;lon;timestamp;temperature;humidity
9118;DHT22;4594;50.994;7.126;2023-01-16T00:01:17;8.70;56.90
9118;DHT22;4594;50.994;7.126;2023-01-16T00:03:43;8.70;56.70
9118;DHT22;4594;50.994;7.126;2023-01-16T00:06:09;8.70;56.50
9118;DHT22;4594;50.994;7.126;2023-01-16T00:08:35;8.60;56.50
9118;DHT22;4594;50.994;7.126;2023-01-16T00:11:01;8.60;56.30
9118;DHT22;4594;50.994;7.126;2023-01-16T00:13:26;8.60;56.20
9118;DHT22;4594;50.994;7.126;2023-01-16T00:15:52;8.60;56.20
9118;DHT22;4594;50.994;7.126;2023-01-16T00:18:18;8.50;56.00
9118;DHT22;4594;50.994;7.126;2023-01-16T00:20:45;8.50;56.00
9118;DHT22;4594;50.994;7.126;2023-01-16T00:23:11;8.50;56.10
9118;DHT22;4594;50.994;7.126;2023-01-16T00:25:42;8.40;55.90
9118;DHT22;4594;50.994;7.126;2023-01-16T00:28:09;8.40;54.90
9118;DHT22;4594;50.994;7.126;2023-01-16T00:30:36;8.40;55.50
9118;DHT22;4594;50.994;7.126;2023-01-16T00:33:02;8.30;55.40
9118;DHT22;4594;50.994;7.126;2023-01-16T00:35:29;8.30;55.50
9118;DHT22;4594;50.994;7.126;2023-01-16T00:37:55;8.20;55.70
9118;DHT22;4594;50.994;7.126;2023-01-16T00:40:21;8.20;55.90
9118;DHT22;4594;50.994;7.126;2023-01-16T00:42:46;8.20;56.20
9118;DHT22;4594;50.994;7.126;2023-01-16T00:45:12;8.20;56.50
9118;DHT22;4594;50.994;7.126;2023-01-16T00:47:38;8.20;56.70
9118;DHT22;4594;50.994;7.126;2023-01-16T00:50:04;8.20;56.90
9118;DHT22;4594;50.994;7.126;2023-01-16T00:52:30;8.20;57.00
9118;DHT22;4594;50.994;7.126;2023-01-16T00:54:56;8.20;57.10
9118;DHT22;4594;50.994;7.126;2023-01-16T00:57:21;8.20;57.00
9118;DHT22;4594;50.994;7.126;2023-01-16T00:59:47;8.20;57.10
9118;DHT22;4594;50.994;7.126;2023-01-16T01:02:13;8.20;57.30
9118;DHT22;4594;50.994;7.126;2023-01-16T01:04:39;8.20;57.20
9118;DHT22;4594;50.994;7.126;2023-01-16T01:07:05;8.20;57.20
9118;DHT22;4594;50.994;7.126;2023-01-16T01:09:30;8.20;57.20
9118;DHT22;4594;50.994;7.126;2023-01-16T01:11:57;8.20;57.10
9118;DHT22;4594;50.994;7.126;2023-01-16T01:14:24;8.20;57.00
9118;DHT22;4594;50.994;7.126;2023-01-16T01:16:50;8.20;57.10
9118;DHT22;4594;50.994;7.126;2023-01-16T01:19:16;8.20;57.10
9118;DHT22;4594;50.994;7.126;2023-01-16T01:21:42;8.20;57.20
9118;DHT22;4594;50.994;7.126;2023-01-16T01:24:08;8.20;57.10
9118;DHT22;4594;50.994;7.126;2023-01-16T01:26:34;8.20;57.10
9118;DHT22;4594;50.994;7.126;2023-01-16T01:29:00;8.20;57.10
9118;DHT22;4594;50.994;7.126;2023-01-16T01:31:26;8.20;57.30
9118;DHT22;4594;50.994;7.126;2023-01-16T01:33:52;8.20;57.40
9118;DHT22;4594;50.994;7.126;2023-01-16T01:36:18;8.20;57.30
9118;DHT22;4594;50.994;7.126;2023-01-16T01:38:44;8.20;57.30
9118;DHT22;4594;50.994;7.126;2023-01-16T01:41:13;8.20;57.40
9118;DHT22;4594;50.994;7.126;2023-01-16T01:43:41;8.20;57.10
9118;DHT22;4594;50.994;7.126;2023-01-16T01:46:27;8.20;57.30
9118;DHT22;4594;50.994;7.126;2023-01-16T01:49:07;8.20;56.90
9118;DHT22;4594;50.994;7.126;2023-01-16T01:51:50;8.30;57.30
9118;DHT22;4594;50.994;7.126;2023-01-16T01:54:27;8.30;57.50
9118;DHT22;4594;50.994;7.126;2023-01-16T01:57:30;8.30;56.80
9118;DHT22;4594;50.994;7.126;2023-01-16T02:00:11;8.30;57.30
9118;DHT22;4594;50.994;7.126;2023-01-16T02:02:48;8.30;57.00
9118;DHT22;4594;50.994;7.126;2023-01-16T02:05:30;8.30;57.30
9118;DHT22;4594;50.994;7.126;2023-01-16T02:08:03;8.30;56.80
9118;DHT22;4594;50.994;7.126;2023-01-16T02:13:08;8.30;57.90
9118;DHT22;4594;50.994;7.126;2023-01-16T02:15:36;8.30;57.80
9118;DHT22;4594;50.994;7.126;2023-01-16T02:18:23;8.30;57.70
9118;DHT22;4594;50.994;7.126;2023-01-16T02:27:31;8.30;56.30
9118;DHT22;4594;50.994;7.126;2023-01-16T02:37:15;8.30;56.10
9118;DHT22;4594;50.994;7.126;2023-01-16T02:42:53;8.20;57.50
9118;DHT22;4594;50.994;7.126;2023-01-16T02:45:43;8.20;57.50
9118;DHT22;4594;50.994;7.126;2023-01-16T02:48:43;8.20;56.30
9118;DHT22;4594;50.994;7.126;2023-01-16T02:51:43;8.20;56.00
9118;DHT22;4594;50.994;7.126;2023-01-16T02:54:28;8.20;57.20
9118;DHT22;4594;50.994;7.126;2023-01-16T02:57:16;8.20;56.50
9118;DHT22;4594;50.994;7.126;2023-01-16T02:59:44;8.10;57.30
9118;DHT22;4594;50.994;7.126;2023-01-16T03:02:12;8.10;57.70
9118;DHT22;4594;50.994;7.126;2023-01-16T03:04:43;8.10;57.80
9118;DHT22;4594;50.994;7.126;2023-01-16T03:12:58;8.20;56.80
9118;DHT22;4594;50.994;7.126;2023-01-16T03:15:29;8.10;57.10
9118;DHT22;4594;50.994;7.126;2023-01-16T03:18:26;8.20;57.30
9118;DHT22;4594;50.994;7.126;2023-01-16T03:21:11;8.20;56.20
9118;DHT22;4594;50.994;7.126;2023-01-16T03:23:54;8.20;56.90
9118;DHT22;4594;50.994;7.126;2023-01-16T03:32:31;8.10;56.10
9118;DHT22;4594;50.994;7.126;2023-01-16T03:35:14;8.10;55.30
9118;DHT22;4594;50.994;7.126;2023-01-16T03:37:50;8.10;56.00
9118;DHT22;4594;50.994;7.126;2023-01-16T03:40:25;8.00;55.50
9118;DHT22;4594;50.994;7.126;2023-01-16T03:42:59;8.00;55.90
9118;DHT22;4594;50.994;7.126;2023-01-16T03:45:42;7.90;55.70
9118;DHT22;4594;50.994;7.126;2023-01-16T03:48:38;7.90;55.50
9118;DHT22;4594;50.994;7.126;2023-01-16T03:51:08;7.80;55.60
9118;DHT22;4594;50.994;7.126;2023-01-16T03:53:43;7.80;56.10
9118;DHT22;4594;50.994;7.126;2023-01-16T03:56:19;7.80;55.80
9118;DHT22;4594;50.994;7.126;2023-01-16T03:58:49;7.70;55.90
9118;DHT22;4594;50.994;7.126;2023-01-16T04:01:23;7.70;56.40
9118;DHT22;4594;50.994;7.126;2023-01-16T04:04:06;7.70;56.70
9118;DHT22;4594;50.994;7.126;2023-01-16T04:06:48;7.70;56.20
9118;DHT22;4594;50.994;7.126;2023-01-16T04:09:47;7.70;56.50
9118;DHT22;4594;50.994;7.126;2023-01-16T04:12:22;7.70;55.90
9118;DHT22;4594;50.994;7.126;2023-01-16T04:15:02;7.70;57.00
9118;DHT22;4594;50.994;7.126;2023-01-16T04:17:38;7.70;57.30
9118;DHT22;4594;50.994;7.126;2023-01-16T04:20:06;7.70;57.30
9118;DHT22;4594;50.994;7.126;2023-01-16T04:22:33;7.80;57.40
9118;DHT22;4594;50.994;7.126;2023-01-16T04:25:02;7.80;57.30
9118;DHT22;4594;50.994;7.126;2023-01-16T04:27:31;7.80;57.20
9118;DHT22;4594;50.994;7.126;2023-01-16T04:29:56;7.80;57.10
9118;DHT22;4594;50.994;7.126;2023-01-16T04:32:22;7.80;57.10
9118;DHT22;4594;50.994;7.126;2023-01-16T04:34:48;7.80;57.10
9118;DHT22;4594;50.994;7.126;2023-01-16T04:37:15;7.80;57.10
9118;DHT22;4594;50.994;7.126;2023-01-16T04:39:42;7.80;56.90
9118;DHT22;4594;50.994;7.126;2023-01-16T04:42:09;7.80;57.10
9118;DHT22;4594;50.994;7.126;2023-01-16T04:44:36;7.80;57.00
9118;DHT22;4594;50.994;7.126;2023-01-16T04:47:01;7.80;57.20
9118;DHT22;4594;50.994;7.126;2023-01-16T04:49:27;7.80;57.20
9118;DHT22;4594;50.994;7.126;2023-01-16T04:51:53;7.90;57.20
9118;DHT22;4594;50.994;7.126;2023-01-16T04:54:20;7.90;57.30
9118;DHT22;4594;50.994;7.126;2023-01-16T04:56:46;7.90;57.10
9118;DHT22;4594;50.994;7.126;2023-01-16T04:59:12;7.90;57.00
9118;DHT22;4594;50.994;7.126;2023-01-16T05:01:40;7.90;57.20
9118;DHT22;4594;50.994;7.126;2023-01-16T05:04:07;7.90;56.90
9118;DHT22;4594;50.994;7.126;2023-01-16T05:06:34;7.80;56.80
9118;DHT22;4594;50.994;7.126;2023-01-16T05:09:01;7.90;56.80
9118;DHT22;4594;50.994;7.126;2023-01-16T05:11:28;7.80;56.80
9118;DHT22;4594;50.994;7.126;2023-01-16T05:13:54;7.80;56.90
9118;DHT22;4594;50.994;7.126;2023-01-16T05:16:20;7.80;56.90
9118;DHT22;4594;50.994;7.126;2023-01-16T05:18:46;7.80;56.90
9118;DHT22;4594;50.994;7.126;2023-01-16T05:21:12;7.80;57.00
9118;DHT22;4594;50.994;7.126;2023-01-16T05:23:37;7.80;57.00
9118;DHT22;4594;50.994;7.126;2023-01-16T05:26:04;7.80;57.00
9118;DHT22;4594;50.994;7.126;2023-01-16T05:28:31;7.80;56.90
9118;DHT22;4594;50.994;7.126;2023-01-16T05:30:58;7.80;56.90
9118;DHT22;4594;50.994;7.126;2023-01-16T05:33:24;7.80;56.90
9118;DHT22;4594;50.994;7.126;2023-01-16T05:35:50;7.80;56.90
9118;DHT22;4594;50.994;7.126;2023-01-16T05:38:16;7.80;56.80
9118;DHT22;4594;50.994;7.126;2023-01-16T05:40:43;7.80;57.00
9118;DHT22;4594;50.994;7.126;2023-01-16T05:43:09;7.90;56.90
9118;DHT22;4594;50.994;7.126;2023-01-16T05:45:36;7.90;57.10
9118;DHT22;4594;50.994;7.126;2023-01-16T05:48:02;7.90;57.10
9118;DHT22;4594;50.994;7.126;2023-01-16T05:50:28;7.90;57.10
9118;DHT22;4594;50.994;7.126;2023-01-16T05:52:54;7.90;57.10
9118;DHT22;4594;50.994;7.126;2023-01-16T05:55:19;7.90;57.10
9118;DHT22;4594;50.994;7.126;2023-01-16T05:57:45;7.90;57.10
9118;DHT22;4594;50.994;7.126;2023-01-16T06:00:11;7.90;57.10
9118;DHT22;4594;50.994;7.126;2023-01-16T06:02:37;7.90;57.10
9118;DHT22;4594;50.994;7.126;2023-01-16T06:05:04;8.00;57.30
9118;DHT22;4594;50.994;7.126;2023-01-16T06:07:30;8.00;57.40
9118;DHT22;4594;50.994;7.126;2023-01-16T06:09:56;8.00;57.70
9118;DHT22;4594;50.994;7.126;2023-01-16T06:12:22;8.10;57.80
9118;DHT22;4594;50.994;7.126;2023-01-16T06:14:47;8.10;58.00
9118;DHT22;4594;50.994;7.126;2023-01-16T06:17:13;8.10;57.70
9118;DHT22;4594;50.994;7.126;2023-01-16T06:19:40;8.20;57.60
9118;DHT22;4594;50.994;7.126;2023-01-16T06:22:06;8.20;57.40
9118;DHT22;4594;50.994;7.126;2023-01-16T06:24:32;8.20;57.40
9118;DHT22;4594;50.994;7.126;2023-01-16T06:26:58;8.30;57.60
9118;DHT22;4594;50.994;7.126;2023-01-16T06:29:24;8.30;57.60
9118;DHT22;4594;50.994;7.126;2023-01-16T06:31:50;8.30;57.40
9118;DHT22;4594;50.994;7.126;2023-01-16T06:34:16;8.30;57.50
9118;DHT22;4594;50.994;7.126;2023-01-16T06:36:42;8.30;57.10
9118;DHT22;4594;50.994;7.126;2023-01-16T06:39:10;8.30;57.20
9118;DHT22;4594;50.994;7.126;2023-01-16T06:41:36;8.30;56.70
9118;DHT22;4594;50.994;7.126;2023-01-16T06:44:01;8.30;57.00
9118;DHT22;4594;50.994;7.126;2023-01-16T06:46:27;8.30;57.00
9118;DHT22;4594;50.994;7.126;2023-01-16T06:48:53;8.40;57.00
9118;DHT22;4594;50.994;7.126;2023-01-16T06:51:18;8.40;56.90
9118;DHT22;4594;50.994;7.126;2023-01-16T06:53:44;8.40;57.00
9118;DHT22;4594;50.994;7.126;2023-01-16T06:56:10;8.30;56.70
9118;DHT22;4594;50.994;7.126;2023-01-16T06:58:35;8.40;56.50
9118;DHT22;4594;50.994;7.126;2023-01-16T07:01:01;8.40;56.70
9118;DHT22;4594;50.994;7.126;2023-01-16T07:03:27;8.30;56.50
9118;DHT22;4594;50.994;7.126;2023-01-16T07:05:52;8.30;56.60
9118;DHT22;4594;50.994;7.126;2023-01-16T07:08:18;8.30;56.60
9118;DHT22;4594;50.994;7.126;2023-01-16T07:10:44;8.30;56.70
9118;DHT22;4594;50.994;7.126;2023-01-16T07:13:10;8.30;56.40
9118;DHT22;4594;50.994;7.126;2023-01-16T07:15:37;8.30;56.30
9118;DHT22;4594;50.994;7.126;2023-01-16T07:18:21;8.30;56.30
9118;DHT22;4594;50.994;7.126;2023-01-16T07:21:11;8.30;56.40
9118;DHT22;4594;50.994;7.126;2023-01-16T07:24:08;8.30;55.50
9118;DHT22;4594;50.994;7.126;2023-01-16T07:26:40;8.30;56.10
9118;DHT22;4594;50.994;7.126;2023-01-16T07:29:09;8.40;56.10
9118;DHT22;4594;50.994;7.126;2023-01-16T07:31:35;8.30;56.50
9118;DHT22;4594;50.994;7.126;2023-01-16T07:34:02;8.30;56.40
9118;DHT22;4594;50.994;7.126;2023-01-16T07:36:27;8.30;56.40
9118;DHT22;4594;50.994;7.126;2023-01-16T07:38:53;8.30;56.50
9118;DHT22;4594;50.994;7.126;2023-01-16T07:41:19;8.30;56.30
9118;DHT22;4594;50.994;7.126;2023-01-16T07:43:44;8.30;56.20
9118;DHT22;4594;50.994;7.126;2023-01-16T07:46:10;8.30;55.90
9118;DHT22;4594;50.994;7.126;2023-01-16T07:48:36;8.30;56.20
9118;DHT22;4594;50.994;7.126;2023-01-16T07:51:01;8.30;56.20
9118;DHT22;4594;50.994;7.126;2023-01-16T07:53:28;8.30;56.30
9118;DHT22;4594;50.994;7.126;2023-01-16T07:55:59;8.30;56.20
9118;DHT22;4594;50.994;7.126;2023-01-16T07:58:26;8.30;55.70
9118;DHT22;4594;50.994;7.126;2023-01-16T08:00:53;8.30;56.30
9118;DHT22;4594;50.994;7.126;2023-01-16T08:03:20;8.30;56.00
9118;DHT22;4594;50.994;7.126;2023-01-16T08:05:47;8.40;56.20
9118;DHT22;4594;50.994;7.126;2023-01-16T08:08:16;8.30;55.80
9118;DHT22;4594;50.994;7.126;2023-01-16T08:10:42;8.30;55.70
9118;DHT22;4594;50.994;7.126;2023-01-16T08:13:08;8.30;55.40
9118;DHT22;4594;50.994;7.126;2023-01-16T08:15:34;8.30;55.60
9118;DHT22;4594;50.994;7.126;2023-01-16T08:17:59;8.20;55.40
9118;DHT22;4594;50.994;7.126;2023-01-16T08:20:25;8.20;55.20
9118;DHT22;4594;50.994;7.126;2023-01-16T08:22:52;8.20;55.30
9118;DHT22;4594;50.994;7.126;2023-01-16T08:25:20;8.10;55.20
9118;DHT22;4594;50.994;7.126;2023-01-16T08:27:47;8.10;55.10
9118;DHT22;4594;50.994;7.126;2023-01-16T08:30:14;8.10;55.60
9118;DHT22;4594;50.994;7.126;2023-01-16T08:32:41;8.10;55.20
9118;DHT22;4594;50.994;7.126;2023-01-16T08:35:08;8.10;55.70
9118;DHT22;4594;50.994;7.126;2023-01-16T08:37:34;8.10;55.70
9118;DHT22;4594;50.994;7.126;2023-01-16T08:40:00;8.10;56.10
9118;DHT22;4594;50.994;7.126;2023-01-16T08:42:26;8.10;56.10
9118;DHT22;4594;50.994;7.126;2023-01-16T08:45:11;8.10;56.00
9118;DHT22;4594;50.994;7.126;2023-01-16T08:47:57;8.10;56.10
9118;DHT22;4594;50.994;7.126;2023-01-16T08:50:44;8.10;56.20
9118;DHT22;4594;50.994;7.126;2023-01-16T08:53:30;8.10;56.10
9118;DHT22;4594;50.994;7.126;2023-01-16T08:55:55;8.10;56.50
9118;DHT22;4594;50.994;7.126;2023-01-16T08:58:21;8.10;56.50
9118;DHT22;4594;50.994;7.126;2023-01-16T09:00:48;8.20;56.40
9118;DHT22;4594;50.994;7.126;2023-01-16T09:03:14;8.20;56.60
9118;DHT22;4594;50.994;7.126;2023-01-16T09:05:44;8.20;56.00
9118;DHT22;4594;50.994;7.126;2023-01-16T09:08:10;8.20;55.80
9118;DHT22;4594;50.994;7.126;2023-01-16T09:10:36;8.20;56.40
9118;DHT22;4594;50.994;7.126;2023-01-16T09:13:02;8.30;56.50
9118;DHT22;4594;50.994;7.126;2023-01-16T09:15:47;8.20;56.30
9118;DHT22;4594;50.994;7.126;2023-01-16T09:18:13;8.30;56.80
9118;DHT22;4594;50.994;7.126;2023-01-16T09:20:39;8.30;56.70
9118;DHT22;4594;50.994;7.126;2023-01-16T09:23:05;8.30;56.40
9118;DHT22;4594;50.994;7.126;2023-01-16T09:25:32;8.30;56.30
9118;DHT22;4594;50.994;7.126;2023-01-16T09:27:58;8.30;56.10
9118;DHT22;4594;50.994;7.126;2023-01-16T09:30:26;8.30;56.30
9118;DHT22;4594;50.994;7.126;2023-01-16T09:32:53;8.30;56.30
9118;DHT22;4594;50.994;7.126;2023-01-16T09:35:19;8.30;56.20
9118;DHT22;4594;50.994;7.126;2023-01-16T09:37:45;8.30;56.50
9118;DHT22;4594;50.994;7.126;2023-01-16T09:40:18;8.30;56.00
9118;DHT22;4594;50.994;7.126;2023-01-16T09:45:48;8.30;55.10
9118;DHT22;4594;50.994;7.126;2023-01-16T09:51:23;8.30;53.40
9118;DHT22;4594;50.994;7.126;2023-01-16T09:53:57;8.30;55.40
9118;DHT22;4594;50.994;7.126;2023-01-16T09:56:59;8.30;55.80
9118;DHT22;4594;50.994;7.126;2023-01-16T09:59:49;8.30;56.10
9118;DHT22;4594;50.994;7.126;2023-01-16T10:02:24;8.30;56.20
9118;DHT22;4594;50.994;7.126;2023-01-16T10:04:54;8.30;56.20
9118;DHT22;4594;50.994;7.126;2023-01-16T10:13:25;8.30;55.20
9118;DHT22;4594;50.994;7.126;2023-01-16T10:16:26;8.30;56.00
9118;DHT22;4594;50.994;7.126;2023-01-16T10:25:15;8.40;57.50
9118;DHT22;4594;50.994;7.126;2023-01-16T10:27:50;8.40;55.40
9118;DHT22;4594;50.994;7.126;2023-01-16T10:30:49;8.40;57.40
9118;DHT22;4594;50.994;7.126;2023-01-16T10:33:40;8.40;55.70
9118;DHT22;4594;50.994;7.126;2023-01-16T10:36:14;8.40;55.80
9118;DHT22;4594;50.994;7.126;2023-01-16T10:38:48;8.40;56.70
9118;DHT22;4594;50.994;7.126;2023-01-16T10:41:24;8.40;55.70
9118;DHT22;4594;50.994;7.126;2023-01-16T10:44:36;8.40;56.90
9118;DHT22;4594;50.994;7.126;2023-01-16T10:47:32;8.40;56.10
9118;DHT22;4594;50.994;7.126;2023-01-16T10:50:20;8.40;56.80
9118;DHT22;4594;50.994;7.126;2023-01-16T10:52:48;8.40;57.10
9118;DHT22;4594;50.994;7.126;2023-01-16T10:55:15;8.40;56.60
9118;DHT22;4594;50.994;7.126;2023-01-16T10:57:54;8.40;56.80
9118;DHT22;4594;50.994;7.126;2023-01-16T11:00:27;8.40;55.40
9118;DHT22;4594;50.994;7.126;2023-01-16T11:03:32;8.40;56.30
9118;DHT22;4594;50.994;7.126;2023-01-16T11:06:32;8.40;54.70
9118;DHT22;4594;50.994;7.126;2023-01-16T11:11:33;8.40;55.80
9118;DHT22;4594;50.994;7.126;2023-01-16T11:14:30;8.50;56.50
9118;DHT22;4594;50.994;7.126;2023-01-16T11:23:19;8.50;54.50
9118;DHT22;4594;50.994;7.126;2023-01-16T11:25:51;8.50;53.60
9118;DHT22;4594;50.994;7.126;2023-01-16T11:28:28;8.50;55.50
9118;DHT22;4594;50.994;7.126;2023-01-16T11:31:14;8.50;54.40
9118;DHT22;4594;50.994;7.126;2023-01-16T11:33:47;8.50;54.70
9118;DHT22;4594;50.994;7.126;2023-01-16T11:36:20;8.40;55.90
9118;DHT22;4594;50.994;7.126;2023-01-16T11:38:49;8.40;56.70
9118;DHT22;4594;50.994;7.126;2023-01-16T11:41:27;8.50;56.60
9118;DHT22;4594;50.994;7.126;2023-01-16T11:44:16;8.50;56.00
9118;DHT22;4594;50.994;7.126;2023-01-16T11:47:05;8.60;55.10
9118;DHT22;4594;50.994;7.126;2023-01-16T11:49:39;8.60;57.50
9118;DHT22;4594;50.994;7.126;2023-01-16T11:52:19;8.70;56.90
9118;DHT22;4594;50.994;7.126;2023-01-16T11:54:57;8.70;57.10
9118;DHT22;4594;50.994;7.126;2023-01-16T12:07:17;9.00;56.00
9118;DHT22;4594;50.994;7.126;2023-01-16T12:12:38;9.10;55.80
9118;DHT22;4594;50.994;7.126;2023-01-16T12:21:29;9.10;54.80
9118;DHT22;4594;50.994;7.126;2023-01-16T12:24:20;9.10;54.30
9118;DHT22;4594;50.994;7.126;2023-01-16T12:30:15;9.00;54.10
9118;DHT22;4594;50.994;7.126;2023-01-16T12:35:41;8.90;55.80
9118;DHT22;4594;50.994;7.126;2023-01-16T12:38:19;8.90;55.80
9118;DHT22;4594;50.994;7.126;2023-01-16T12:41:12;8.80;54.50
9118;DHT22;4594;50.994;7.126;2023-01-16T12:44:40;8.80;53.60
9118;DHT22;4594;50.994;7.126;2023-01-16T12:59:01;8.30;54.30
9118;DHT22;4594;50.994;7.126;2023-01-16T13:01:36;8.30;55.10
9118;DHT22;4594;50.994;7.126;2023-01-16T13:04:13;8.20;55.30
9118;DHT22;4594;50.994;7.126;2023-01-16T13:06:53;8.20;55.60
9118;DHT22;4594;50.994;7.126;2023-01-16T13:09:45;8.10;55.30
9118;DHT22;4594;50.994;7.126;2023-01-16T13:12:26;8.10;55.10
9118;DHT22;4594;50.994;7.126;2023-01-16T13:15:22;8.10;55.20
9118;DHT22;4594;50.994;7.126;2023-01-16T13:18:18;8.10;55.80
9118;DHT22;4594;50.994;7.126;2023-01-16T13:21:12;8.10;55.60
9118;DHT22;4594;50.994;7.126;2023-01-16T13:26:14;8.10;56.70
9118;DHT22;4594;50.994;7.126;2023-01-16T13:32:39;8.10;54.70
9118;DHT22;4594;50.994;7.126;2023-01-16T13:35:05;8.20;56.50
9118;DHT22;4594;50.994;7.126;2023-01-16T13:42:50;8.30;56.50
9118;DHT22;4594;50.994;7.126;2023-01-16T13:45:37;8.30;56.50
9118;DHT22;4594;50.994;7.126;2023-01-16T13:48:35;8.30;55.20
9118;DHT22;4594;50.994;7.126;2023-01-16T13:51:13;8.30;55.40
9118;DHT22;4594;50.994;7.126;2023-01-16T13:53:41;8.30;56.50
9118;DHT22;4594;50.994;7.126;2023-01-16T13:56:20;8.30;56.90
9118;DHT22;4594;50.994;7.126;2023-01-16T13:59:11;8.30;56.30
9118;DHT22;4594;50.994;7.126;2023-01-16T14:01:55;8.30;55.40
9118;DHT22;4594;50.994;7.126;2023-01-16T14:06:57;8.40;57.50
9118;DHT22;4594;50.994;7.126;2023-01-16T14:10:22;8.40;56.80
9118;DHT22;4594;50.994;7.126;2023-01-16T14:13:12;8.40;56.10
9118;DHT22;4594;50.994;7.126;2023-01-16T14:21:28;8.40;55.10
9118;DHT22;4594;50.994;7.126;2023-01-16T14:24:15;8.40;57.00
9118;DHT22;4594;50.994;7.126;2023-01-16T14:27:04;8.40;56.70
9118;DHT22;4594;50.994;7.126;2023-01-16T14:29:48;8.40;54.30
9118;DHT22;4594;50.994;7.126;2023-01-16T14:32:19;8.40;55.40
9118;DHT22;4594;50.994;7.126;2023-01-16T14:37:31;8.40;56.20
9118;DHT22;4594;50.994;7.126;2023-01-16T14:42:50;8.30;56.40
9118;DHT22;4594;50.994;7.126;2023-01-16T14:45:40;8.30;56.20
9118;DHT22;4594;50.994;7.126;2023-01-16T14:51:33;8.30;56.70
9118;DHT22;4594;50.994;7.126;2023-01-16T14:57:12;8.30;56.90
9118;DHT22;4594;50.994;7.126;2023-01-16T15:00:02;8.30;57.10
9118;DHT22;4594;50.994;7.126;2023-01-16T15:05:42;8.30;57.00
9118;DHT22;4594;50.994;7.126;2023-01-16T15:08:39;8.40;54.90
9118;DHT22;4594;50.994;7.126;2023-01-16T15:11:25;8.40;55.30
9118;DHT22;4594;50.994;7.126;2023-01-16T15:14:17;8.40;56.30
9118;DHT22;4594;50.994;7.126;2023-01-16T15:17:13;8.40;55.00
9118;DHT22;4594;50.994;7.126;2023-01-16T15:20:13;8.40;55.60
9118;DHT22;4594;50.994;7.126;2023-01-16T15:23:03;8.40;56.30
9118;DHT22;4594;50.994;7.126;2023-01-16T15:29:05;8.30;55.50
9118;DHT22;4594;50.994;7.126;2023-01-16T15:31:44;8.40;55.30
9118;DHT22;4594;50.994;7.126;2023-01-16T15:34:25;8.40;56.20
9118;DHT22;4594;50.994;7.126;2023-01-16T15:36:53;8.30;56.70
9118;DHT22;4594;50.994;7.126;2023-01-16T15:44:58;8.40;57.10
9118;DHT22;4594;50.994;7.126;2023-01-16T15:50:56;8.40;56.20
9118;DHT22;4594;50.994;7.126;2023-01-16T15:53:36;8.40;56.60
9118;DHT22;4594;50.994;7.126;2023-01-16T15:56:23;8.40;56.30
9118;DHT22;4594;50.994;7.126;2023-01-16T15:58:53;8.40;55.70
9118;DHT22;4594;50.994;7.126;2023-01-16T16:01:33;8.40;57.00
9118;DHT22;4594;50.994;7.126;2023-01-16T16:04:01;8.40;55.60
9118;DHT22;4594;50.994;7.126;2023-01-16T16:06:29;8.40;57.10
9118;DHT22;4594;50.994;7.126;2023-01-16T16:08:56;8.40;57.30
9118;DHT22;4594;50.994;7.126;2023-01-16T16:11:28;8.40;57.20
9118;DHT22;4594;50.994;7.126;2023-01-16T16:17:28;8.50;56.80
9118;DHT22;4594;50.994;7.126;2023-01-16T16:20:35;8.40;56.10
9118;DHT22;4594;50.994;7.126;2023-01-16T16:23:21;8.40;55.70
9118;DHT22;4594;50.994;7.126;2023-01-16T16:26:02;8.40;55.60
9118;DHT22;4594;50.994;7.126;2023-01-16T16:31:20;8.40;56.60
9118;DHT22;4594;50.994;7.126;2023-01-16T16:34:18;8.40;55.40
9118;DHT22;4594;50.994;7.126;2023-01-16T16:36:51;8.40;55.60
9118;DHT22;4594;50.994;7.126;2023-01-16T16:42:00;8.30;56.60
9118;DHT22;4594;50.994;7.126;2023-01-16T16:45:02;8.30;56.90
9118;DHT22;4594;50.994;7.126;2023-01-16T16:47:30;8.30;56.70
9118;DHT22;4594;50.994;7.126;2023-01-16T16:49:58;8.30;56.80
9118;DHT22;4594;50.994;7.126;2023-01-16T16:52:44;8.30;56.90
9118;DHT22;4594;50.994;7.126;2023-01-16T16:55:33;8.20;55.80
9118;DHT22;4594;50.994;7.126;2023-01-16T16:58:04;8.20;55.60
9118;DHT22;4594;50.994;7.126;2023-01-16T17:00:33;8.20;56.70
9118;DHT22;4594;50.994;7.126;2023-01-16T17:03:06;8.10;56.80
9118;DHT22;4594;50.994;7.126;2023-01-16T17:05:40;8.10;56.60
9118;DHT22;4594;50.994;7.126;2023-01-16T17:08:08;8.10;57.40
9118;DHT22;4594;50.994;7.126;2023-01-16T17:10:40;8.10;57.60
9118;DHT22;4594;50.994;7.126;2023-01-16T17:13:08;8.10;57.60
9118;DHT22;4594;50.994;7.126;2023-01-16T17:15:36;8.10;57.40
9118;DHT22;4594;50.994;7.126;2023-01-16T17:18:02;8.10;57.70
9118;DHT22;4594;50.994;7.126;2023-01-16T17:20:30;8.10;57.80
9118;DHT22;4594;50.994;7.126;2023-01-16T17:22:57;8.10;57.90
9118;DHT22;4594;50.994;7.126;2023-01-16T17:25:22;8.10;57.80
9118;DHT22;4594;50.994;7.126;2023-01-16T17:27:53;8.10;57.90
9118;DHT22;4594;50.994;7.126;2023-01-16T17:30:22;8.10;57.40
9118;DHT22;4594;50.994;7.126;2023-01-16T17:32:59;8.10;57.90
9118;DHT22;4594;50.994;7.126;2023-01-16T17:35:33;8.10;57.50
9118;DHT22;4594;50.994;7.126;2023-01-16T17:37:58;8.10;58.20
9118;DHT22;4594;50.994;7.126;2023-01-16T17:40:24;8.10;58.30
9118;DHT22;4594;50.994;7.126;2023-01-16T17:42:50;8.10;58.30
9118;DHT22;4594;50.994;7.126;2023-01-16T17:45:41;8.10;58.30
9118;DHT22;4594;50.994;7.126;2023-01-16T17:48:25;8.10;57.80
9118;DHT22;4594;50.994;7.126;2023-01-16T17:50:53;8.10;58.00
9118;DHT22;4594;50.994;7.126;2023-01-16T17:53:22;8.10;58.40
9118;DHT22;4594;50.994;7.126;2023-01-16T17:55:50;8.10;58.40
9118;DHT22;4594;50.994;7.126;2023-01-16T18:00:59;8.00;58.50
9118;DHT22;4594;50.994;7.126;2023-01-16T18:03:29;8.00;58.20
9118;DHT22;4594;50.994;7.126;2023-01-16T18:06:01;8.00;58.50
9118;DHT22;4594;50.994;7.126;2023-01-16T18:08:31;8.00;58.60
9118;DHT22;4594;50.994;7.126;2023-01-16T18:11:02;8.00;58.80
9118;DHT22;4594;50.994;7.126;2023-01-16T18:13:49;8.00;58.60
9118;DHT22;4594;50.994;7.126;2023-01-16T18:16:35;8.10;59.20
9118;DHT22;4594;50.994;7.126;2023-01-16T18:19:20;8.10;59.00
9118;DHT22;4594;50.994;7.126;2023-01-16T18:21:46;8.10;59.00
9118;DHT22;4594;50.994;7.126;2023-01-16T18:27:01;8.10;58.80
9118;DHT22;4594;50.994;7.126;2023-01-16T18:29:29;8.10;59.20
9118;DHT22;4594;50.994;7.126;2023-01-16T18:31:55;8.10;59.40
9118;DHT22;4594;50.994;7.126;2023-01-16T18:34:39;8.10;59.40
9118;DHT22;4594;50.994;7.126;2023-01-16T18:37:05;8.10;59.40
9118;DHT22;4594;50.994;7.126;2023-01-16T18:39:31;8.20;59.50
9118;DHT22;4594;50.994;7.126;2023-01-16T18:42:15;8.20;59.50
9118;DHT22;4594;50.994;7.126;2023-01-16T18:45:00;8.20;59.50
9118;DHT22;4594;50.994;7.126;2023-01-16T18:47:44;8.20;59.60
9118;DHT22;4594;50.994;7.126;2023-01-16T18:50:28;8.20;59.60
9118;DHT22;4594;50.994;7.126;2023-01-16T18:53:21;8.20;59.70
9118;DHT22;4594;50.994;7.126;2023-01-16T18:56:16;8.30;59.20
9118;DHT22;4594;50.994;7.126;2023-01-16T18:59:02;8.30;59.20
9118;DHT22;4594;50.994;7.126;2023-01-16T19:01:47;8.30;59.90
9118;DHT22;4594;50.994;7.126;2023-01-16T19:04:29;8.30;59.90
9118;DHT22;4594;50.994;7.126;2023-01-16T19:06:58;8.30;59.90
9118;DHT22;4594;50.994;7.126;2023-01-16T19:09:27;8.30;59.70
9118;DHT22;4594;50.994;7.126;2023-01-16T19:11:54;8.40;59.80
9118;DHT22;4594;50.994;7.126;2023-01-16T19:14:24;8.40;59.80
9118;DHT22;4594;50.994;7.126;2023-01-16T19:16:51;8.40;59.70
9118;DHT22;4594;50.994;7.126;2023-01-16T19:19:22;8.40;59.60
9118;DHT22;4594;50.994;7.126;2023-01-16T19:21:52;8.40;59.50
9118;DHT22;4594;50.994;7.126;2023-01-16T19:24:17;8.40;59.50
9118;DHT22;4594;50.994;7.126;2023-01-16T19:26:44;8.40;59.60
9118;DHT22;4594;50.994;7.126;2023-01-16T19:29:18;8.40;59.60
9118;DHT22;4594;50.994;7.126;2023-01-16T19:31:45;8.50;59.00
9118;DHT22;4594;50.994;7.126;2023-01-16T19:34:11;8.50;59.50
9118;DHT22;4594;50.994;7.126;2023-01-16T19:36:39;8.50;59.50